sensor_id;sensor_type;location;lat;lon;timestamp;pressure;altitude;pressure_sealevel;temperature;humidity
20656;BME280;10487;53.320;8.672;2023-04-23T00:00:21;100385.59;;;12.16;45.75
20656;BME280;10487;53.320;8.672;2023-04-23T00:03:24;100393.31;;;12.09;45.84
20656;BME280;10487;53.320;8.672;2023-04-23T00:06:28;100407.59;;;11.99;45.77
20656;BME280;10487;53.320;8.672;2023-04-23T00:09:31;100400.31;;;11.90;46.12
20656;BME280;10487;53.320;8.672;2023-04-23T00:12:33;100402.06;;;11.79;46.05
20656;BME280;10487;53.320;8.672;2023-04-23T00:15:36;100397.41;;;11.72;46.26
20656;BME280;10487;53.320;8.672;2023-04-23T00:18:38;100398.75;;;11.66;45.99
20656;BME280;10487;53.320;8.672;2023-04-23T00:21:39;100393.19;;;11.58;46.16
20656;BME280;10487;53.320;8.672;2023-04-23T00:24:41;100395.53;;;11.52;46.10
20656;BME280;10487;53.320;8.672;2023-04-23T00:27:43;100399.53;;;11.46;46.35
20656;BME280;10487;53.320;8.672;2023-04-23T00:30:45;100397.25;;;11.42;46.03
20656;BME280;10487;53.320;8.672;2023-04-23T00:33:47;100401.00;;;11.39;46.38
20656;BME280;10487;53.320;8.672;2023-04-23T00:36:48;100401.50;;;11.33;46.24
20656;BME280;10487;53.320;8.672;2023-04-23T00:39:50;100409.03;;;11.28;46.45
20656;BME280;10487;53.320;8.672;2023-04-23T00:42:51;100407.00;;;11.20;46.30
20656;BME280;10487;53.320;8.672;2023-04-23T00:45:54;100411.00;;;11.15;46.48
20656;BME280;10487;53.320;8.672;2023-04-23T00:48:56;100412.38;;;11.09;46.33
20656;BME280;10487;53.320;8.672;2023-04-23T00:51:58;100421.72;;;11.04;46.55
20656;BME280;10487;53.320;8.672;2023-04-23T00:55:01;100423.91;;;10.99;46.48
20656;BME280;10487;53.320;8.672;2023-04-23T00:58:03;100415.56;;;10.92;46.56
20656;BME280;10487;53.320;8.672;2023-04-23T01:01:06;100424.75;;;10.88;46.55
20656;BME280;10487;53.320;8.672;2023-04-23T01:04:09;100420.88;;;10.81;46.66
20656;BME280;10487;53.320;8.672;2023-04-23T01:07:11;100424.88;;;10.76;46.68
20656;BME280;10487;53.320;8.672;2023-04-23T01:10:13;100422.59;;;10.71;46.69
20656;BME280;10487;53.320;8.672;2023-04-23T01:13:15;100422.97;;;10.67;46.65
20656;BME280;10487;53.320;8.672;2023-04-23T01:16:17;100419.81;;;10.62;46.80
20656;BME280;10487;53.320;8.672;2023-04-23T01:19:19;100421.75;;;10.60;46.67
20656;BME280;10487;53.320;8.672;2023-04-23T01:22:21;100420.28;;;10.55;46.80
20656;BME280;10487;53.320;8.672;2023-04-23T01:25:22;100419.78;;;10.50;46.74
20656;BME280;10487;53.320;8.672;2023-04-23T01:28:24;100419.19;;;10.47;46.83
20656;BME280;10487;53.320;8.672;2023-04-23T01:31:26;100423.88;;;10.43;46.74
20656;BME280;10487;53.320;8.672;2023-04-23T01:34:30;100427.13;;;10.36;46.75
20656;BME280;10487;53.320;8.672;2023-04-23T01:37:32;100426.78;;;10.29;46.87
20656;BME280;10487;53.320;8.672;2023-04-23T01:40:34;100439.59;;;10.24;46.91
20656;BME280;10487;53.320;8.672;2023-04-23T01:43:37;100440.81;;;10.20;46.91
20656;BME280;10487;53.320;8.672;2023-04-23T01:46:39;100441.19;;;10.16;46.92
20656;BME280;10487;53.320;8.672;2023-04-23T01:49:42;100437.88;;;10.12;47.13
20656;BME280;10487;53.320;8.672;2023-04-23T01:52:43;100443.56;;;10.08;46.99
20656;BME280;10487;53.320;8.672;2023-04-23T01:55:47;100449.25;;;10.03;46.99
20656;BME280;10487;53.320;8.672;2023-04-23T01:58:49;100446.19;;;9.97;47.01
20656;BME280;10487;53.320;8.672;2023-04-23T02:01:52;100437.09;;;9.88;47.07
20656;BME280;10487;53.320;8.672;2023-04-23T02:04:54;100432.44;;;9.79;47.12
20656;BME280;10487;53.320;8.672;2023-04-23T02:07:57;100437.25;;;9.74;47.05
20656;BME280;10487;53.320;8.672;2023-04-23T02:10:58;100438.59;;;9.68;47.14
20656;BME280;10487;53.320;8.672;2023-04-23T02:14:00;100445.09;;;9.64;47.03
20656;BME280;10487;53.320;8.672;2023-04-23T02:17:02;100447.16;;;9.61;47.17
20656;BME280;10487;53.320;8.672;2023-04-23T02:20:05;100450.03;;;9.58;47.21
20656;BME280;10487;53.320;8.672;2023-04-23T02:23:07;100439.59;;;9.55;47.12
20656;BME280;10487;53.320;8.672;2023-04-23T02:26:09;100445.16;;;9.52;47.08
20656;BME280;10487;53.320;8.672;2023-04-23T02:29:11;100441.75;;;9.50;47.13
20656;BME280;10487;53.320;8.672;2023-04-23T02:32:12;100443.69;;;9.48;47.07
20656;BME280;10487;53.320;8.672;2023-04-23T02:35:14;100436.03;;;9.43;47.15
20656;BME280;10487;53.320;8.672;2023-04-23T02:38:16;100441.59;;;9.40;47.18
20656;BME280;10487;53.320;8.672;2023-04-23T02:41:17;100442.66;;;9.38;47.18
20656;BME280;10487;53.320;8.672;2023-04-23T02:44:19;100446.59;;;9.32;47.38
20656;BME280;10487;53.320;8.672;2023-04-23T02:47:20;100444.13;;;9.29;47.29
20656;BME280;10487;53.320;8.672;2023-04-23T02:50:22;100449.72;;;9.26;47.32
20656;BME280;10487;53.320;8.672;2023-04-23T02:53:24;100446.41;;;9.22;47.28
20656;BME280;10487;53.320;8.672;2023-04-23T02:56:25;100448.34;;;9.20;47.49
20656;BME280;10487;53.320;8.672;2023-04-23T02:59:28;100442.28;;;9.18;47.43
20656;BME280;10487;53.320;8.672;2023-04-23T03:02:29;100439.81;;;9.15;47.41
20656;BME280;10487;53.320;8.672;2023-04-23T03:05:31;100450.59;;;9.14;47.42
20656;BME280;10487;53.320;8.672;2023-04-23T03:08:33;100456.13;;;9.11;47.48
20656;BME280;10487;53.320;8.672;2023-04-23T03:11:34;100460.72;;;9.09;47.34
20656;BME280;10487;53.320;8.672;2023-04-23T03:14:36;100462.75;;;9.05;47.40
20656;BME280;10487;53.320;8.672;2023-04-23T03:17:38;100466.34;;;9.04;47.35
20656;BME280;10487;53.320;8.672;2023-04-23T03:20:39;100466.59;;;9.01;47.37
20656;BME280;10487;53.320;8.672;2023-04-23T03:23:41;100463.28;;;8.98;47.52
20656;BME280;10487;53.320;8.672;2023-04-23T03:26:42;100468.81;;;8.95;47.48
20656;BME280;10487;53.320;8.672;2023-04-23T03:29:44;100467.22;;;8.92;47.46
20656;BME280;10487;53.320;8.672;2023-04-23T03:32:47;100469.16;;;8.90;47.63
20656;BME280;10487;53.320;8.672;2023-04-23T03:35:48;100478.31;;;8.86;47.64
20656;BME280;10487;53.320;8.672;2023-04-23T03:38:50;100466.94;;;8.84;47.74
20656;BME280;10487;53.320;8.672;2023-04-23T03:41:52;100462.56;;;8.83;47.66
20656;BME280;10487;53.320;8.672;2023-04-23T03:44:53;100468.97;;;8.81;47.63
20656;BME280;10487;53.320;8.672;2023-04-23T03:47:55;100473.53;;;8.79;47.73
20656;BME280;10487;53.320;8.672;2023-04-23T03:50:57;100473.75;;;8.76;47.85
20656;BME280;10487;53.320;8.672;2023-04-23T03:53:59;100473.88;;;8.74;47.67
20656;BME280;10487;53.320;8.672;2023-04-23T03:57:01;100473.09;;;8.72;47.75
20656;BME280;10487;53.320;8.672;2023-04-23T04:00:04;100479.28;;;8.73;47.71
20656;BME280;10487;53.320;8.672;2023-04-23T04:03:08;100475.75;;;8.72;47.77
20656;BME280;10487;53.320;8.672;2023-04-23T04:06:11;100468.75;;;8.71;47.87
20656;BME280;10487;53.320;8.672;2023-04-23T04:09:13;100457.38;;;8.69;47.95
20656;BME280;10487;53.320;8.672;2023-04-23T04:12:15;100465.34;;;8.69;47.91
20656;BME280;10487;53.320;8.672;2023-04-23T04:15:16;100464.50;;;8.69;47.91
20656;BME280;10487;53.320;8.672;2023-04-23T04:18:20;100460.03;;;8.69;47.89
20656;BME280;10487;53.320;8.672;2023-04-23T04:21:22;100470.69;;;8.69;47.97
20656;BME280;10487;53.320;8.672;2023-04-23T04:24:23;100477.06;;;8.67;48.09
20656;BME280;10487;53.320;8.672;2023-04-23T04:27:26;100483.34;;;8.66;48.11
20656;BME280;10487;53.320;8.672;2023-04-23T04:30:28;100487.91;;;8.63;47.95
20656;BME280;10487;53.320;8.672;2023-04-23T04:33:29;100489.06;;;8.59;48.02
20656;BME280;10487;53.320;8.672;2023-04-23T04:36:31;100492.78;;;8.57;48.03
20656;BME280;10487;53.320;8.672;2023-04-23T04:39:33;100491.31;;;8.53;48.00
20656;BME280;10487;53.320;8.672;2023-04-23T04:42:34;100494.09;;;8.51;48.22
20656;BME280;10487;53.320;8.672;2023-04-23T04:45:36;100489.72;;;8.50;48.15
20656;BME280;10487;53.320;8.672;2023-04-23T04:48:38;100477.38;;;8.49;48.23
20656;BME280;10487;53.320;8.672;2023-04-23T04:51:40;100486.44;;;8.47;48.23
20656;BME280;10487;53.320;8.672;2023-04-23T04:54:41;100479.41;;;8.46;48.22
20656;BME280;10487;53.320;8.672;2023-04-23T04:57:44;100484.91;;;8.43;48.35
20656;BME280;10487;53.320;8.672;2023-04-23T05:00:45;100485.88;;;8.42;48.24
20656;BME280;10487;53.320;8.672;2023-04-23T05:03:48;100487.78;;;8.40;48.42
20656;BME280;10487;53.320;8.672;2023-04-23T05:06:50;100484.28;;;8.39;48.39
20656;BME280;10487;53.320;8.672;2023-04-23T05:09:52;100494.06;;;8.39;48.37
20656;BME280;10487;53.320;8.672;2023-04-23T05:12:55;100492.34;;;8.38;48.33
20656;BME280;10487;53.320;8.672;2023-04-23T05:15:57;100491.50;;;8.37;48.48
20656;BME280;10487;53.320;8.672;2023-04-23T05:18:59;100497.66;;;8.38;48.34
20656;BME280;10487;53.320;8.672;2023-04-23T05:22:00;100499.47;;;8.37;48.51
20656;BME280;10487;53.320;8.672;2023-04-23T05:25:04;100491.50;;;8.37;48.45
20656;BME280;10487;53.320;8.672;2023-04-23T05:28:06;100496.00;;;8.37;48.57
20656;BME280;10487;53.320;8.672;2023-04-23T05:31:09;100489.81;;;8.36;48.43
20656;BME280;10487;53.320;8.672;2023-04-23T05:34:10;100503.97;;;8.37;48.49
20656;BME280;10487;53.320;8.672;2023-04-23T05:37:12;100493.41;;;8.35;48.49
20656;BME280;10487;53.320;8.672;2023-04-23T05:40:13;100495.22;;;8.35;48.46
20656;BME280;10487;53.320;8.672;2023-04-23T05:43:15;100498.72;;;8.35;48.61
20656;BME280;10487;53.320;8.672;2023-04-23T05:46:17;100488.09;;;8.35;48.64
20656;BME280;10487;53.320;8.672;2023-04-23T05:49:19;100488.09;;;8.35;48.67
20656;BME280;10487;53.320;8.672;2023-04-23T05:52:21;100497.88;;;8.35;48.55
20656;BME280;10487;53.320;8.672;2023-04-23T05:55:22;100497.06;;;8.34;48.56
20656;BME280;10487;53.320;8.672;2023-04-23T05:58:24;100490.88;;;8.34;48.58
20656;BME280;10487;53.320;8.672;2023-04-23T06:01:26;100491.63;;;8.36;48.82
20656;BME280;10487;53.320;8.672;2023-04-23T06:04:28;100487.03;;;8.38;48.73
20656;BME280;10487;53.320;8.672;2023-04-23T06:07:30;100493.88;;;8.42;48.86
20656;BME280;10487;53.320;8.672;2023-04-23T06:10:32;100496.28;;;8.45;48.70
20656;BME280;10487;53.320;8.672;2023-04-23T06:13:33;100482.78;;;8.48;48.84
20656;BME280;10487;53.320;8.672;2023-04-23T06:16:43;100487.03;;;8.50;48.70
20656;BME280;10487;53.320;8.672;2023-04-23T06:19:45;100481.53;;;8.53;48.82
20656;BME280;10487;53.320;8.672;2023-04-23T06:22:46;100485.66;;;8.57;48.87
20656;BME280;10487;53.320;8.672;2023-04-23T06:25:48;100478.22;;;8.62;48.88
20656;BME280;10487;53.320;8.672;2023-04-23T06:28:50;100487.38;;;8.71;48.88
20656;BME280;10487;53.320;8.672;2023-04-23T06:31:54;100485.75;;;9.06;49.16
20656;BME280;10487;53.320;8.672;2023-04-23T06:34:56;100483.16;;;9.17;48.98
20656;BME280;10487;53.320;8.672;2023-04-23T06:38:02;100473.16;;;9.21;49.09
20656;BME280;10487;53.320;8.672;2023-04-23T06:41:04;100476.53;;;9.23;48.91
20656;BME280;10487;53.320;8.672;2023-04-23T06:44:05;100479.09;;;9.24;48.99
20656;BME280;10487;53.320;8.672;2023-04-23T06:47:07;100473.66;;;9.26;49.00
20656;BME280;10487;53.320;8.672;2023-04-23T06:50:09;100467.34;;;9.27;48.96
20656;BME280;10487;53.320;8.672;2023-04-23T06:53:10;100464.91;;;9.24;48.92
20656;BME280;10487;53.320;8.672;2023-04-23T06:56:12;100470.25;;;9.24;48.93
20656;BME280;10487;53.320;8.672;2023-04-23T06:59:14;100459.50;;;9.25;48.90
20656;BME280;10487;53.320;8.672;2023-04-23T07:02:15;100466.41;;;9.28;49.16
20656;BME280;10487;53.320;8.672;2023-04-23T07:05:17;100468.22;;;9.27;48.95
20656;BME280;10487;53.320;8.672;2023-04-23T07:08:19;100466.28;;;9.29;49.18
20656;BME280;10487;53.320;8.672;2023-04-23T07:11:23;100464.81;;;9.38;49.18
20656;BME280;10487;53.320;8.672;2023-04-23T07:14:25;100464.78;;;9.51;49.20
20656;BME280;10487;53.320;8.672;2023-04-23T07:17:27;100469.19;;;9.63;49.03
20656;BME280;10487;53.320;8.672;2023-04-23T07:20:28;100468.28;;;9.75;48.97
20656;BME280;10487;53.320;8.672;2023-04-23T07:23:30;100462.25;;;9.84;48.84
20656;BME280;10487;53.320;8.672;2023-04-23T07:26:32;100463.75;;;9.88;48.84
20656;BME280;10487;53.320;8.672;2023-04-23T07:29:34;100472.25;;;9.93;48.79
20656;BME280;10487;53.320;8.672;2023-04-23T07:32:36;100467.16;;;10.01;48.86
20656;BME280;10487;53.320;8.672;2023-04-23T07:35:38;100470.59;;;10.14;48.89
20656;BME280;10487;53.320;8.672;2023-04-23T07:38:39;100475.25;;;10.34;48.92
20656;BME280;10487;53.320;8.672;2023-04-23T07:41:41;100465.03;;;10.52;48.82
20656;BME280;10487;53.320;8.672;2023-04-23T07:44:43;100456.06;;;10.64;48.86
20656;BME280;10487;53.320;8.672;2023-04-23T07:47:45;100457.41;;;10.81;48.87
20656;BME280;10487;53.320;8.672;2023-04-23T07:50:47;100450.97;;;10.94;48.87
20656;BME280;10487;53.320;8.672;2023-04-23T07:53:48;100447.94;;;11.10;48.75
20656;BME280;10487;53.320;8.672;2023-04-23T07:56:51;100443.03;;;11.26;48.77
20656;BME280;10487;53.320;8.672;2023-04-23T07:59:53;100450.78;;;11.40;48.55
20656;BME280;10487;53.320;8.672;2023-04-23T08:02:55;100452.47;;;11.52;48.49
20656;BME280;10487;53.320;8.672;2023-04-23T08:05:59;100453.06;;;11.67;48.53
20656;BME280;10487;53.320;8.672;2023-04-23T08:09:00;100445.69;;;11.80;48.44
20656;BME280;10487;53.320;8.672;2023-04-23T08:12:06;100438.50;;;11.92;48.34
20656;BME280;10487;53.320;8.672;2023-04-23T08:15:08;100441.09;;;12.03;48.62
20656;BME280;10487;53.320;8.672;2023-04-23T08:18:10;100439.50;;;12.11;48.29
20656;BME280;10487;53.320;8.672;2023-04-23T08:21:12;100442.94;;;12.23;48.31
20656;BME280;10487;53.320;8.672;2023-04-23T08:24:14;100430.34;;;12.34;48.38
20656;BME280;10487;53.320;8.672;2023-04-23T08:27:15;100433.91;;;12.44;48.12
20656;BME280;10487;53.320;8.672;2023-04-23T08:30:17;100427.94;;;12.52;48.20
20656;BME280;10487;53.320;8.672;2023-04-23T08:33:19;100416.44;;;12.61;48.13
20656;BME280;10487;53.320;8.672;2023-04-23T08:36:20;100418.31;;;12.70;47.91
20656;BME280;10487;53.320;8.672;2023-04-23T08:39:22;100411.16;;;12.80;47.82
20656;BME280;10487;53.320;8.672;2023-04-23T08:42:48;100412.06;;;12.90;48.03
20656;BME280;10487;53.320;8.672;2023-04-23T08:45:51;100405.59;;;12.93;47.60
20656;BME280;10487;53.320;8.672;2023-04-23T08:48:55;100406.03;;;12.98;47.89
20656;BME280;10487;53.320;8.672;2023-04-23T08:52:14;100401.53;;;13.08;47.64
20656;BME280;10487;53.320;8.672;2023-04-23T08:55:18;100406.34;;;13.14;47.62
20656;BME280;10487;53.320;8.672;2023-04-23T08:58:21;100394.06;;;13.21;47.66
20656;BME280;10487;53.320;8.672;2023-04-23T09:01:24;100389.47;;;13.33;47.29
20656;BME280;10487;53.320;8.672;2023-04-23T09:04:26;100396.38;;;13.45;47.27
20656;BME280;10487;53.320;8.672;2023-04-23T09:07:29;100391.91;;;13.55;47.38
20656;BME280;10487;53.320;8.672;2023-04-23T09:10:31;100404.47;;;13.64;47.10
20656;BME280;10487;53.320;8.672;2023-04-23T09:13:33;100393.88;;;13.72;46.96
20656;BME280;10487;53.320;8.672;2023-04-23T09:16:36;100386.25;;;13.77;47.19
20656;BME280;10487;53.320;8.672;2023-04-23T09:19:38;100390.34;;;13.81;47.11
20656;BME280;10487;53.320;8.672;2023-04-23T09:22:49;100390.34;;;13.81;46.78
20656;BME280;10487;53.320;8.672;2023-04-23T09:25:51;100376.94;;;13.81;46.74
20656;BME280;10487;53.320;8.672;2023-04-23T09:28:53;100372.56;;;13.90;47.00
20656;BME280;10487;53.320;8.672;2023-04-23T09:32:04;100361.97;;;13.98;46.59
20656;BME280;10487;53.320;8.672;2023-04-23T09:35:11;100356.56;;;14.17;46.78
20656;BME280;10487;53.320;8.672;2023-04-23T09:38:13;100357.63;;;14.33;46.60
20656;BME280;10487;53.320;8.672;2023-04-23T09:41:20;100358.78;;;14.41;46.54
20656;BME280;10487;53.320;8.672;2023-04-23T09:44:22;100355.91;;;14.52;46.37
20656;BME280;10487;53.320;8.672;2023-04-23T09:47:24;100350.22;;;14.64;46.50
20656;BME280;10487;53.320;8.672;2023-04-23T09:50:37;100352.97;;;14.72;46.25
20656;BME280;10487;53.320;8.672;2023-04-23T09:53:41;100351.09;;;14.82;46.22
20656;BME280;10487;53.320;8.672;2023-04-23T09:56:48;100362.50;;;14.94;46.12
20656;BME280;10487;53.320;8.672;2023-04-23T09:59:50;100356.91;;;15.05;46.05
20656;BME280;10487;53.320;8.672;2023-04-23T10:03:08;100359.66;;;15.23;45.93
20656;BME280;10487;53.320;8.672;2023-04-23T10:06:13;100354.59;;;15.37;45.72
20656;BME280;10487;53.320;8.672;2023-04-23T10:09:31;100356.44;;;15.54;45.57
20656;BME280;10487;53.320;8.672;2023-04-23T10:12:33;100357.66;;;15.60;45.66
20656;BME280;10487;53.320;8.672;2023-04-23T10:15:55;100349.50;;;15.70;45.62
20656;BME280;10487;53.320;8.672;2023-04-23T10:19:13;100343.31;;;15.95;45.54
20656;BME280;10487;53.320;8.672;2023-04-23T10:22:15;100349.06;;;16.17;45.35
20656;BME280;10487;53.320;8.672;2023-04-23T10:25:21;100341.97;;;16.42;45.48
20656;BME280;10487;53.320;8.672;2023-04-23T10:28:25;100341.22;;;16.58;45.09
20656;BME280;10487;53.320;8.672;2023-04-23T10:31:32;100340.44;;;16.73;45.08
20656;BME280;10487;53.320;8.672;2023-04-23T10:34:34;100356.38;;;16.92;44.98
20656;BME280;10487;53.320;8.672;2023-04-23T10:37:37;100342.44;;;17.05;45.02
20656;BME280;10487;53.320;8.672;2023-04-23T10:40:39;100352.25;;;17.22;44.78
20656;BME280;10487;53.320;8.672;2023-04-23T10:43:45;100346.03;;;17.38;44.82
20656;BME280;10487;53.320;8.672;2023-04-23T10:46:52;100341.84;;;17.51;44.90
20656;BME280;10487;53.320;8.672;2023-04-23T10:49:54;100329.09;;;17.62;44.45
20656;BME280;10487;53.320;8.672;2023-04-23T10:52:56;100330.94;;;17.69;44.40
20656;BME280;10487;53.320;8.672;2023-04-23T10:56:06;100334.47;;;17.78;44.84
20656;BME280;10487;53.320;8.672;2023-04-23T11:02:22;100324.69;;;18.01;44.30
20656;BME280;10487;53.320;8.672;2023-04-23T11:05:25;100321.25;;;18.15;44.62
20656;BME280;10487;53.320;8.672;2023-04-23T11:08:29;100319.72;;;18.29;44.22
20656;BME280;10487;53.320;8.672;2023-04-23T11:11:42;100317.00;;;18.45;44.05
20656;BME280;10487;53.320;8.672;2023-04-23T11:14:47;100314.78;;;18.56;44.05
20656;BME280;10487;53.320;8.672;2023-04-23T11:20:55;100319.97;;;18.66;43.93
20656;BME280;10487;53.320;8.672;2023-04-23T11:24:00;100317.09;;;18.59;43.98
20656;BME280;10487;53.320;8.672;2023-04-23T11:27:05;100312.59;;;18.52;43.88
20656;BME280;10487;53.320;8.672;2023-04-23T11:30:28;100306.03;;;18.30;44.19
20656;BME280;10487;53.320;8.672;2023-04-23T11:33:29;100308.09;;;18.20;44.25
20656;BME280;10487;53.320;8.672;2023-04-23T11:36:31;100306.09;;;18.14;43.90
20656;BME280;10487;53.320;8.672;2023-04-23T11:39:34;100303.22;;;18.07;44.24
20656;BME280;10487;53.320;8.672;2023-04-23T11:42:45;100292.94;;;18.03;44.09
20656;BME280;10487;53.320;8.672;2023-04-23T11:45:47;100288.41;;;18.03;44.06
20656;BME280;10487;53.320;8.672;2023-04-23T11:48:49;100291.59;;;18.07;44.07
20656;BME280;10487;53.320;8.672;2023-04-23T11:51:51;100293.94;;;18.10;43.61
20656;BME280;10487;53.320;8.672;2023-04-23T11:54:52;100279.44;;;18.11;43.68
20656;BME280;10487;53.320;8.672;2023-04-23T11:57:55;100290.03;;;18.20;43.86
20656;BME280;10487;53.320;8.672;2023-04-23T12:00:57;100288.31;;;18.28;43.54
20656;BME280;10487;53.320;8.672;2023-04-23T12:04:17;100283.09;;;18.34;43.62
20656;BME280;10487;53.320;8.672;2023-04-23T12:07:30;100280.69;;;18.47;43.73
20656;BME280;10487;53.320;8.672;2023-04-23T12:10:32;100277.50;;;18.52;43.29
20656;BME280;10487;53.320;8.672;2023-04-23T12:13:33;100283.59;;;18.46;43.28
20656;BME280;10487;53.320;8.672;2023-04-23T12:16:45;100295.56;;;18.35;43.03
20656;BME280;10487;53.320;8.672;2023-04-23T12:19:47;100289.38;;;18.18;43.23
20656;BME280;10487;53.320;8.672;2023-04-23T12:22:50;100290.56;;;18.08;43.15
20656;BME280;10487;53.320;8.672;2023-04-23T12:25:53;100279.63;;;18.09;43.15
20656;BME280;10487;53.320;8.672;2023-04-23T12:28:58;100275.88;;;18.10;43.13
20656;BME280;10487;53.320;8.672;2023-04-23T12:32:01;100272.00;;;18.13;43.43
20656;BME280;10487;53.320;8.672;2023-04-23T12:35:02;100271.53;;;18.09;43.37
20656;BME280;10487;53.320;8.672;2023-04-23T12:38:23;100274.94;;;17.87;43.19
20656;BME280;10487;53.320;8.672;2023-04-23T12:41:25;100270.22;;;17.65;43.11
20656;BME280;10487;53.320;8.672;2023-04-23T12:44:27;100270.38;;;17.55;43.21
20656;BME280;10487;53.320;8.672;2023-04-23T12:47:29;100267.19;;;17.52;43.44
20656;BME280;10487;53.320;8.672;2023-04-23T12:50:31;100257.56;;;17.49;43.17
20656;BME280;10487;53.320;8.672;2023-04-23T12:53:32;100251.53;;;17.47;43.16
20656;BME280;10487;53.320;8.672;2023-04-23T12:56:34;100249.50;;;17.49;43.08
20656;BME280;10487;53.320;8.672;2023-04-23T12:59:36;100247.97;;;17.55;43.11
20656;BME280;10487;53.320;8.672;2023-04-23T13:02:38;100245.94;;;17.57;43.27
20656;BME280;10487;53.320;8.672;2023-04-23T13:05:40;100234.50;;;17.63;43.36
20656;BME280;10487;53.320;8.672;2023-04-23T13:08:42;100239.03;;;17.79;42.90
20656;BME280;10487;53.320;8.672;2023-04-23T13:11:43;100231.25;;;17.92;43.14
20656;BME280;10487;53.320;8.672;2023-04-23T13:14:47;100227.31;;;18.02;42.73
20656;BME280;10487;53.320;8.672;2023-04-23T13:17:48;100233.53;;;18.19;42.56
20656;BME280;10487;53.320;8.672;2023-04-23T13:20:50;100224.69;;;18.33;42.81
20656;BME280;10487;53.320;8.672;2023-04-23T13:23:52;100220.91;;;18.50;42.33
20656;BME280;10487;53.320;8.672;2023-04-23T13:26:54;100211.53;;;18.69;42.59
20656;BME280;10487;53.320;8.672;2023-04-23T13:29:56;100215.31;;;18.82;42.36
20656;BME280;10487;53.320;8.672;2023-04-23T13:32:59;100213.03;;;18.94;42.16
20656;BME280;10487;53.320;8.672;2023-04-23T13:36:01;100210.47;;;19.01;42.23
20656;BME280;10487;53.320;8.672;2023-04-23T13:39:03;100204.22;;;19.08;42.39
20656;BME280;10487;53.320;8.672;2023-04-23T13:42:04;100202.81;;;19.12;42.02
20656;BME280;10487;53.320;8.672;2023-04-23T13:45:10;100191.84;;;19.14;42.17
20656;BME280;10487;53.320;8.672;2023-04-23T13:48:15;100191.66;;;19.15;41.91
20656;BME280;10487;53.320;8.672;2023-04-23T13:51:16;100191.66;;;19.15;42.17
20656;BME280;10487;53.320;8.672;2023-04-23T13:54:34;100177.47;;;19.13;41.64
20656;BME280;10487;53.320;8.672;2023-04-23T13:57:36;100181.22;;;19.04;41.99
20656;BME280;10487;53.320;8.672;2023-04-23T14:00:40;100183.50;;;18.93;41.80
20656;BME280;10487;53.320;8.672;2023-04-23T14:03:42;100176.28;;;18.85;41.81
20656;BME280;10487;53.320;8.672;2023-04-23T14:06:44;100160.50;;;18.74;41.67
20656;BME280;10487;53.320;8.672;2023-04-23T14:09:45;100154.13;;;18.67;41.85
20656;BME280;10487;53.320;8.672;2023-04-23T14:12:48;100152.16;;;18.61;41.78
20656;BME280;10487;53.320;8.672;2023-04-23T14:15:49;100147.09;;;18.58;41.85
20656;BME280;10487;53.320;8.672;2023-04-23T14:18:51;100143.75;;;18.56;41.71
20656;BME280;10487;53.320;8.672;2023-04-23T14:21:53;100132.28;;;18.54;41.58
20656;BME280;10487;53.320;8.672;2023-04-23T14:25:00;100137.69;;;18.54;41.75
20656;BME280;10487;53.320;8.672;2023-04-23T14:28:21;100123.13;;;18.55;41.89
20656;BME280;10487;53.320;8.672;2023-04-23T14:31:24;100128.19;;;18.58;41.90
20656;BME280;10487;53.320;8.672;2023-04-23T14:34:26;100132.75;;;18.57;41.51
20656;BME280;10487;53.320;8.672;2023-04-23T14:37:28;100134.97;;;18.54;41.94
20656;BME280;10487;53.320;8.672;2023-04-23T14:40:29;100128.91;;;18.52;41.54
20656;BME280;10487;53.320;8.672;2023-04-23T14:43:31;100129.28;;;18.49;41.52
20656;BME280;10487;53.320;8.672;2023-04-23T14:46:34;100129.44;;;18.47;41.84
20656;BME280;10487;53.320;8.672;2023-04-23T14:49:36;100127.78;;;18.46;41.56
20656;BME280;10487;53.320;8.672;2023-04-23T14:52:38;100120.22;;;18.42;41.53
20656;BME280;10487;53.320;8.672;2023-04-23T14:55:39;100120.03;;;18.35;41.79
20656;BME280;10487;53.320;8.672;2023-04-23T14:58:43;100113.66;;;18.28;41.90
20656;BME280;10487;53.320;8.672;2023-04-23T15:01:45;100109.81;;;18.23;41.69
20656;BME280;10487;53.320;8.672;2023-04-23T15:04:47;100106.63;;;18.19;41.54
20656;BME280;10487;53.320;8.672;2023-04-23T15:07:48;100108.16;;;18.13;41.49
20656;BME280;10487;53.320;8.672;2023-04-23T15:10:52;100107.53;;;18.03;41.40
20656;BME280;10487;53.320;8.672;2023-04-23T15:17:16;100095.13;;;17.94;41.70
20656;BME280;10487;53.320;8.672;2023-04-23T15:20:18;100100.03;;;17.91;41.53
20656;BME280;10487;53.320;8.672;2023-04-23T15:23:20;100091.25;;;17.89;41.24
20656;BME280;10487;53.320;8.672;2023-04-23T15:26:22;100080.66;;;17.87;41.34
20656;BME280;10487;53.320;8.672;2023-04-23T15:29:23;100079.31;;;17.83;41.21
20656;BME280;10487;53.320;8.672;2023-04-23T15:32:25;100079.84;;;17.79;41.31
20656;BME280;10487;53.320;8.672;2023-04-23T15:35:27;100087.09;;;17.70;41.56
20656;BME280;10487;53.320;8.672;2023-04-23T15:38:28;100082.06;;;17.59;41.78
20656;BME280;10487;53.320;8.672;2023-04-23T15:41:30;100091.22;;;17.50;41.56
20656;BME280;10487;53.320;8.672;2023-04-23T15:44:32;100086.00;;;17.40;41.46
20656;BME280;10487;53.320;8.672;2023-04-23T15:47:33;100079.94;;;17.30;41.87
20656;BME280;10487;53.320;8.672;2023-04-23T15:50:35;100071.56;;;17.25;41.55
20656;BME280;10487;53.320;8.672;2023-04-23T15:53:37;100079.81;;;17.24;41.45
20656;BME280;10487;53.320;8.672;2023-04-23T15:56:38;100078.16;;;17.15;41.45
20656;BME280;10487;53.320;8.672;2023-04-23T15:59:40;100074.63;;;16.98;41.68
20656;BME280;10487;53.320;8.672;2023-04-23T16:02:42;100082.53;;;16.67;41.48
20656;BME280;10487;53.320;8.672;2023-04-23T16:05:44;100079.13;;;16.33;41.83
20656;BME280;10487;53.320;8.672;2023-04-23T16:08:48;100088.16;;;16.08;42.02